createdAt,value
2023-08-19T00:00:27.844Z,19.00
2023-08-19T00:02:57.447Z,15.80
2023-08-19T00:05:25.413Z,20.60
2023-08-19T00:07:52.849Z,15.20
2023-08-19T00:10:20.165Z,16.20
2023-08-19T00:12:47.535Z,15.80
2023-08-19T00:15:14.930Z,13.50
2023-08-19T00:17:42.541Z,16.20
2023-08-19T00:20:12.065Z,16.40
2023-08-19T00:22:39.492Z,15.40
2023-08-19T00:25:07.070Z,17.80
2023-08-19T00:27:34.490Z,15.50
2023-08-19T00:30:02.034Z,12.90
2023-08-19T00:32:31.189Z,13.70
2023-08-19T00:34:58.566Z,14.70
2023-08-19T00:37:25.873Z,15.40
2023-08-19T00:39:53.862Z,15.00
2023-08-19T00:42:21.192Z,17.80
2023-08-19T00:44:48.659Z,15.70
2023-08-19T00:47:16.089Z,17.10
2023-08-19T00:49:43.691Z,18.80
2023-08-19T00:52:11.141Z,14.60
2023-08-19T00:54:38.588Z,14.00
2023-08-19T00:57:07.065Z,17.90
2023-08-19T00:59:34.397Z,18.50
2023-08-19T01:02:02.201Z,14.10
2023-08-19T01:04:29.631Z,18.40
2023-08-19T01:07:14.072Z,17.00
2023-08-19T01:09:43.589Z,18.10
2023-08-19T01:12:18.827Z,14.20
2023-08-19T01:15:05.631Z,15.20
2023-08-19T01:17:33.479Z,15.10
2023-08-19T01:20:01.615Z,14.60
2023-08-19T01:22:57.520Z,17.80
2023-08-19T01:25:25.654Z,14.20
2023-08-19T01:27:55.006Z,17.30
2023-08-19T01:30:22.448Z,17.30
2023-08-19T01:32:49.834Z,16.90
2023-08-19T01:35:18.575Z,16.20
2023-08-19T01:37:57.255Z,15.90
2023-08-19T01:40:24.859Z,16.50
2023-08-19T01:42:52.259Z,15.70
2023-08-19T01:45:19.609Z,16.50
2023-08-19T01:47:47.081Z,23.70
2023-08-19T01:50:14.441Z,19.20
2023-08-19T01:52:41.966Z,18.40
2023-08-19T01:55:10.362Z,12.80
2023-08-19T01:57:37.997Z,14.90
2023-08-19T02:00:08.305Z,17.90
2023-08-19T02:02:44.620Z,13.30
2023-08-19T02:05:15.959Z,15.40
2023-08-19T02:10:13.400Z,12.80
2023-08-19T02:12:40.885Z,15.70
2023-08-19T02:15:08.861Z,17.60
2023-08-19T02:17:36.355Z,21.50
2023-08-19T02:20:04.626Z,19.90
2023-08-19T02:22:32.055Z,16.30
2023-08-19T02:24:59.544Z,16.90
2023-08-19T02:27:27.165Z,15.30
2023-08-19T02:29:55.200Z,14.60
2023-08-19T02:32:23.296Z,14.50
2023-08-19T02:34:51.551Z,15.40
2023-08-19T02:37:18.995Z,14.20
2023-08-19T02:39:46.444Z,15.10
2023-08-19T02:42:17.532Z,16.00
2023-08-19T02:44:45.089Z,19.10
2023-08-19T02:47:12.436Z,15.30
2023-08-19T02:51:54.712Z,17.60
2023-08-19T02:54:22.089Z,15.80
2023-08-19T02:56:49.655Z,23.10
2023-08-19T02:59:17.147Z,24.60
2023-08-19T03:01:44.481Z,19.60
2023-08-19T03:04:11.885Z,19.40
2023-08-19T03:06:39.731Z,18.70
2023-08-19T03:09:07.050Z,15.00
2023-08-19T03:11:34.621Z,15.00
2023-08-19T03:14:02.268Z,14.00
2023-08-19T03:16:30.097Z,16.50
2023-08-19T03:18:57.442Z,13.30
2023-08-19T03:21:24.846Z,19.60
2023-08-19T03:23:52.309Z,19.80
2023-08-19T03:26:20.155Z,15.60
2023-08-19T03:28:48.035Z,15.00
2023-08-19T03:31:16.152Z,16.80
2023-08-19T03:33:43.619Z,18.50
2023-08-19T03:36:11.939Z,18.90
2023-08-19T03:38:39.594Z,16.00
2023-08-19T03:41:07.050Z,13.50
2023-08-19T03:43:35.092Z,15.20
2023-08-19T03:46:02.604Z,12.80
2023-08-19T03:48:30.059Z,13.60
2023-08-19T03:50:57.420Z,12.90
2023-08-19T03:53:25.058Z,12.40
2023-08-19T03:55:52.745Z,14.70
2023-08-19T03:58:20.145Z,14.30
2023-08-19T04:00:48.989Z,19.60
2023-08-19T04:03:20.897Z,11.90
2023-08-19T04:05:48.250Z,13.30
2023-08-19T04:08:15.641Z,11.80
2023-08-19T04:10:42.998Z,9.30
2023-08-19T04:13:10.964Z,9.60
2023-08-19T04:15:38.352Z,10.80
2023-08-19T04:18:06.447Z,13.60
2023-08-19T04:20:38.480Z,10.10
2023-08-19T04:23:06.724Z,13.20
2023-08-19T04:25:34.103Z,10.60
2023-08-19T04:28:02.329Z,11.80
2023-08-19T04:30:29.945Z,10.90
2023-08-19T04:32:59.847Z,11.80
2023-08-19T04:35:31.338Z,10.20
2023-08-19T04:37:58.959Z,9.80
2023-08-19T04:40:26.711Z,8.80
2023-08-19T04:42:54.185Z,9.20
2023-08-19T04:45:22.272Z,9.30
2023-08-19T04:47:50.760Z,11.80
2023-08-19T04:50:18.521Z,14.10
2023-08-19T04:52:45.862Z,11.30
2023-08-19T04:55:16.174Z,21.60
2023-08-19T04:57:43.688Z,12.00
2023-08-19T05:00:13.598Z,11.90
2023-08-19T05:02:42.285Z,11.30
2023-08-19T05:05:09.675Z,11.40
2023-08-19T05:07:37.731Z,11.80
2023-08-19T05:10:05.434Z,14.00
2023-08-19T05:12:32.961Z,10.70
2023-08-19T05:15:00.814Z,12.60
2023-08-19T05:17:28.962Z,15.50
2023-08-19T05:19:56.753Z,15.30
2023-08-19T05:22:24.367Z,13.30
2023-08-19T05:24:51.750Z,12.70
2023-08-19T05:27:19.167Z,11.00
2023-08-19T05:29:46.641Z,10.50
2023-08-19T05:32:13.969Z,13.30
2023-08-19T05:34:43.442Z,13.20
2023-08-19T05:37:11.103Z,24.10
2023-08-19T05:39:38.512Z,8.70
2023-08-19T05:42:06.013Z,12.40
2023-08-19T05:44:33.405Z,10.40
2023-08-19T05:47:00.699Z,14.40
2023-08-19T05:49:28.822Z,10.50
2023-08-19T05:51:56.541Z,10.40
2023-08-19T05:54:23.832Z,10.30
2023-08-19T05:56:51.179Z,9.30
2023-08-19T05:59:18.636Z,11.00
2023-08-19T06:01:45.999Z,9.80
2023-08-19T06:04:13.562Z,12.70
2023-08-19T06:06:40.965Z,10.80
2023-08-19T06:09:08.914Z,14.70
2023-08-19T06:11:47.462Z,10.90
2023-08-19T06:14:15.182Z,9.30
2023-08-19T06:16:43.255Z,8.90
2023-08-19T06:19:13.520Z,13.50
2023-08-19T06:21:41.422Z,20.80
2023-08-19T06:24:09.139Z,10.70
2023-08-19T06:26:36.824Z,10.60
2023-08-19T06:29:04.490Z,10.70
2023-08-19T06:31:32.674Z,11.70
2023-08-19T06:34:00.296Z,12.90
2023-08-19T06:36:29.950Z,9.90
2023-08-19T06:39:30.251Z,8.70
2023-08-19T06:42:03.022Z,8.30
2023-08-19T06:44:33.959Z,11.40
2023-08-19T06:47:03.092Z,12.60
2023-08-19T06:49:30.728Z,8.20
2023-08-19T06:51:58.503Z,8.80
2023-08-19T06:54:26.092Z,8.50
2023-08-19T06:57:11.063Z,10.30
2023-08-19T06:59:39.810Z,6.70
2023-08-19T07:02:09.032Z,6.80
2023-08-19T07:04:37.280Z,12.60
2023-08-19T07:07:05.736Z,11.20
2023-08-19T07:09:35.050Z,9.80
2023-08-19T07:12:03.642Z,7.90
2023-08-19T07:14:31.535Z,8.20
2023-08-19T07:17:04.155Z,8.40
2023-08-19T07:19:33.663Z,11.70
2023-08-19T07:22:01.535Z,6.50
2023-08-19T07:24:28.853Z,7.90
2023-08-19T07:26:56.307Z,7.80
2023-08-19T07:29:24.098Z,11.20
2023-08-19T07:31:51.479Z,7.30
2023-08-19T07:34:18.958Z,9.30
2023-08-19T07:36:46.322Z,5.80
2023-08-19T07:39:15.004Z,13.90
2023-08-19T07:41:42.343Z,8.30
2023-08-19T07:44:09.791Z,8.90
2023-08-19T07:46:37.180Z,11.40
2023-08-19T07:49:04.606Z,7.40
2023-08-19T07:51:32.017Z,14.20
2023-08-19T07:53:59.445Z,8.30
2023-08-19T07:56:26.919Z,9.40
2023-08-19T07:58:54.449Z,8.70
2023-08-19T08:01:21.867Z,11.00
2023-08-19T08:03:49.858Z,8.10
2023-08-19T08:06:17.312Z,11.60
2023-08-19T08:08:44.728Z,9.70
2023-08-19T08:11:12.107Z,10.40
2023-08-19T08:13:39.756Z,8.40
2023-08-19T08:16:07.175Z,10.80
2023-08-19T08:18:35.008Z,14.50
2023-08-19T08:21:03.387Z,9.10
2023-08-19T08:23:32.905Z,9.40
2023-08-19T08:26:05.564Z,7.90
2023-08-19T08:28:33.035Z,9.90
2023-08-19T08:31:00.422Z,7.10
2023-08-19T08:33:27.796Z,14.20
2023-08-19T08:35:55.278Z,13.20
2023-08-19T08:38:23.233Z,9.70
2023-08-19T08:40:51.434Z,8.80
2023-08-19T08:43:20.958Z,9.60
2023-08-19T08:45:48.353Z,8.30
2023-08-19T08:48:17.660Z,8.00
2023-08-19T08:50:45.249Z,9.20
2023-08-19T08:53:13.976Z,11.60
2023-08-19T08:55:41.588Z,6.40
2023-08-19T08:58:09.032Z,9.20
2023-08-19T09:00:39.158Z,9.50
2023-08-19T09:05:34.941Z,5.60
2023-08-19T09:08:02.399Z,9.70
2023-08-19T09:10:29.940Z,11.60
2023-08-19T09:12:59.045Z,8.30
2023-08-19T09:15:29.902Z,9.90
2023-08-19T09:17:58.661Z,12.20
2023-08-19T09:20:26.839Z,12.40
2023-08-19T09:23:09.075Z,8.10
2023-08-19T09:25:39.233Z,8.30
2023-08-19T09:28:07.328Z,7.90
2023-08-19T09:30:36.386Z,14.70
2023-08-19T09:33:04.094Z,6.70
2023-08-19T09:35:57.192Z,8.30
2023-08-19T09:38:26.314Z,9.20
2023-08-19T09:41:08.135Z,13.00
2023-08-19T09:43:41.797Z,21.60
2023-08-19T09:46:09.857Z,5.40
2023-08-19T09:48:37.611Z,14.10
2023-08-19T09:51:05.130Z,6.70
2023-08-19T09:53:32.601Z,8.90
2023-08-19T09:55:59.993Z,9.20
2023-08-19T09:58:27.439Z,8.40
2023-08-19T10:00:54.857Z,10.30
2023-08-19T10:03:22.312Z,13.60
2023-08-19T10:05:55.745Z,9.70
2023-08-19T10:08:24.600Z,7.10
2023-08-19T10:10:52.082Z,11.30
2023-08-19T10:13:19.404Z,8.60
2023-08-19T10:15:47.888Z,11.50
2023-08-19T10:18:18.308Z,17.40
2023-08-19T10:23:14.552Z,9.00
2023-08-19T10:25:42.670Z,7.60
2023-08-19T10:28:14.675Z,7.60
2023-08-19T10:30:42.245Z,8.30
2023-08-19T10:33:30.276Z,20.20
2023-08-19T10:36:03.398Z,11.10
2023-08-19T10:38:45.212Z,8.00
2023-08-19T10:41:37.246Z,11.00
2023-08-19T10:44:05.413Z,9.00
2023-08-19T10:46:39.491Z,11.90
2023-08-19T10:49:15.727Z,6.40
2023-08-19T10:52:01.932Z,7.70
2023-08-19T10:54:40.078Z,10.00
2023-08-19T10:57:24.944Z,7.70
2023-08-19T11:00:00.304Z,7.00
2023-08-19T11:02:28.864Z,9.70
2023-08-19T11:04:58.712Z,7.50
2023-08-19T11:07:26.585Z,15.80
2023-08-19T11:09:55.470Z,10.20
2023-08-19T11:12:23.895Z,6.70
2023-08-19T11:14:56.614Z,10.60
2023-08-19T11:17:28.479Z,10.60
2023-08-19T11:19:56.969Z,8.50
2023-08-19T11:22:24.663Z,8.90
2023-08-19T11:24:52.614Z,7.70
2023-08-19T11:27:20.254Z,7.80
2023-08-19T11:29:48.476Z,8.60
2023-08-19T11:32:20.830Z,13.60
2023-08-19T11:34:48.460Z,17.70
2023-08-19T11:37:17.331Z,6.00
2023-08-19T11:39:46.062Z,15.60
2023-08-19T11:42:13.409Z,11.10
2023-08-19T11:44:44.573Z,7.40
2023-08-19T11:47:15.137Z,9.80
2023-08-19T11:49:46.012Z,11.30
2023-08-19T11:52:20.458Z,13.80
2023-08-19T11:55:01.328Z,5.10
2023-08-19T11:57:35.609Z,11.10
2023-08-19T12:00:06.303Z,6.30
2023-08-19T12:02:40.033Z,11.50
2023-08-19T12:05:08.224Z,8.80
2023-08-19T12:07:36.266Z,11.00
2023-08-19T12:10:05.349Z,15.80
2023-08-19T12:12:33.507Z,13.00
2023-08-19T12:15:02.253Z,6.70
2023-08-19T12:17:31.123Z,10.70
2023-08-19T12:19:58.520Z,9.30
2023-08-19T12:22:25.884Z,8.50
2023-08-19T12:24:53.281Z,7.40
2023-08-19T12:27:20.646Z,10.30
2023-08-19T12:29:49.930Z,8.20
2023-08-19T12:32:17.402Z,11.80
2023-08-19T12:34:44.731Z,12.30
2023-08-19T12:37:12.057Z,12.90
2023-08-19T12:39:39.491Z,9.70
2023-08-19T12:42:07.152Z,5.60
2023-08-19T12:44:34.639Z,11.10
2023-08-19T12:47:01.982Z,9.60
2023-08-19T12:49:29.341Z,10.40
2023-08-19T12:51:57.578Z,8.20
2023-08-19T12:54:25.101Z,8.10
2023-08-19T12:56:52.506Z,7.70
2023-08-19T12:59:19.885Z,5.10
2023-08-19T13:01:48.608Z,7.10
2023-08-19T13:04:15.991Z,6.90
2023-08-19T13:06:47.475Z,10.50
2023-08-19T13:09:15.086Z,6.50
2023-08-19T13:11:42.413Z,9.70
2023-08-19T13:14:09.748Z,8.60
2023-08-19T13:16:37.224Z,6.20
2023-08-19T13:19:04.978Z,11.30
2023-08-19T13:21:32.496Z,6.00
2023-08-19T13:23:59.891Z,8.10
2023-08-19T13:26:28.213Z,7.80
2023-08-19T13:28:55.527Z,7.50
2023-08-19T13:31:24.005Z,7.30
2023-08-19T13:33:51.550Z,6.70
2023-08-19T13:36:18.851Z,12.60
2023-08-19T13:38:46.179Z,10.30
2023-08-19T13:41:13.776Z,8.90
2023-08-19T13:43:42.227Z,9.80
2023-08-19T13:46:09.618Z,8.70
2023-08-19T13:48:37.031Z,12.60
2023-08-19T13:51:04.688Z,9.30
2023-08-19T13:53:32.290Z,5.80
2023-08-19T13:55:59.749Z,9.80
2023-08-19T13:58:27.061Z,6.30
2023-08-19T14:00:54.412Z,8.70
2023-08-19T14:03:22.404Z,9.00
2023-08-19T14:05:50.006Z,5.80
2023-08-19T14:08:17.506Z,10.90
2023-08-19T14:10:48.806Z,12.80
2023-08-19T14:13:16.167Z,7.80
2023-08-19T14:15:43.475Z,13.10
2023-08-19T14:18:10.892Z,9.40
2023-08-19T14:20:38.502Z,7.20
2023-08-19T14:23:05.827Z,8.10
2023-08-19T14:25:33.124Z,7.00
2023-08-19T14:28:00.462Z,7.10
2023-08-19T14:30:27.964Z,6.40
2023-08-19T14:32:55.297Z,7.10
2023-08-19T14:35:22.748Z,9.30
2023-08-19T14:37:50.228Z,9.60
2023-08-19T14:40:20.606Z,7.60
2023-08-19T14:42:48.564Z,9.40
2023-08-19T14:45:16.648Z,6.30
2023-08-19T14:47:44.057Z,7.50
2023-08-19T14:50:11.511Z,10.70
2023-08-19T14:52:39.135Z,10.10
2023-08-19T14:55:09.112Z,9.20
2023-08-19T14:57:38.662Z,9.40
2023-08-19T15:00:12.264Z,8.60
2023-08-19T15:02:48.077Z,9.00
2023-08-19T15:05:15.838Z,9.60
2023-08-19T15:09:36.481Z,12.90
2023-08-19T15:12:05.068Z,8.90
2023-08-19T15:14:32.460Z,7.40
2023-08-19T15:16:59.799Z,6.90
2023-08-19T15:19:27.164Z,9.80
2023-08-19T15:21:54.986Z,9.60
2023-08-19T15:24:22.303Z,9.10
2023-08-19T15:26:49.666Z,6.60
2023-08-19T15:29:17.194Z,10.10
2023-08-19T15:31:44.632Z,9.40
2023-08-19T15:34:11.969Z,7.40
2023-08-19T15:36:39.319Z,6.40
2023-08-19T15:39:06.692Z,11.20
2023-08-19T15:41:34.098Z,10.50
2023-08-19T15:44:01.847Z,11.40
2023-08-19T15:46:29.319Z,18.10
2023-08-19T15:48:56.649Z,9.40
2023-08-19T15:51:23.981Z,15.20
2023-08-19T15:53:52.420Z,12.00
2023-08-19T15:56:20.657Z,15.00
2023-08-19T15:58:51.521Z,9.30
2023-08-19T16:01:18.921Z,20.80
2023-08-19T16:03:46.230Z,21.10
2023-08-19T16:06:13.670Z,19.50
2023-08-19T16:08:41.122Z,16.90
2023-08-19T16:11:09.158Z,10.40
2023-08-19T16:13:36.487Z,10.30
2023-08-19T16:16:03.988Z,13.70
2023-08-19T16:18:32.004Z,11.30
2023-08-19T16:20:59.842Z,10.70
2023-08-19T16:23:28.034Z,16.40
2023-08-19T16:25:55.391Z,16.40
2023-08-19T16:28:22.751Z,13.60
2023-08-19T16:30:50.122Z,16.80
2023-08-19T16:33:17.454Z,12.90
2023-08-19T16:35:45.642Z,12.10
2023-08-19T16:38:12.982Z,13.70
2023-08-19T16:40:40.412Z,10.50
2023-08-19T16:43:09.767Z,12.90
2023-08-19T16:45:37.109Z,11.10
2023-08-19T16:48:04.988Z,15.40
2023-08-19T16:50:32.423Z,14.40
2023-08-19T16:52:59.728Z,14.00
2023-08-19T16:55:27.132Z,9.80
2023-08-19T16:57:54.502Z,12.20
2023-08-19T17:00:24.010Z,13.60
2023-08-19T17:02:51.489Z,16.20
2023-08-19T17:05:19.223Z,16.50
2023-08-19T17:07:46.791Z,21.50
2023-08-19T17:10:14.082Z,23.20
2023-08-19T17:12:41.399Z,21.60
2023-08-19T17:15:08.918Z,17.60
2023-08-19T17:17:36.602Z,15.80
2023-08-19T17:20:07.670Z,16.00
2023-08-19T17:22:38.583Z,16.50
2023-08-19T17:25:06.272Z,13.80
2023-08-19T17:27:33.785Z,14.30
2023-08-19T17:30:01.312Z,13.40
2023-08-19T17:32:28.782Z,20.10
2023-08-19T17:34:56.067Z,17.40
2023-08-19T17:37:23.395Z,18.20
2023-08-19T17:39:50.947Z,17.30
2023-08-19T17:42:19.393Z,12.20
2023-08-19T17:44:54.371Z,16.80
2023-08-19T17:47:21.898Z,14.10
2023-08-19T17:49:49.233Z,21.70
2023-08-19T17:52:16.556Z,16.40
2023-08-19T17:54:43.968Z,12.00
2023-08-19T17:57:13.428Z,17.00
2023-08-19T17:59:40.768Z,11.70
2023-08-19T18:02:08.310Z,19.30
2023-08-19T18:04:35.771Z,11.90
2023-08-19T18:07:03.524Z,14.90
2023-08-19T18:09:30.929Z,18.10
2023-08-19T18:12:01.069Z,17.80
2023-08-19T18:14:28.381Z,14.20
2023-08-19T18:16:56.402Z,15.50
2023-08-19T18:19:34.687Z,14.40
2023-08-19T18:22:03.612Z,12.60
2023-08-19T18:24:31.760Z,19.60
2023-08-19T18:27:00.035Z,38.50
2023-08-19T18:29:27.803Z,30.90
2023-08-19T18:31:57.219Z,18.00
2023-08-19T18:34:24.949Z,23.10
2023-08-19T18:36:52.257Z,20.30
2023-08-19T18:39:19.670Z,21.80
2023-08-19T18:41:47.131Z,54.70
2023-08-19T18:44:14.502Z,39.80
2023-08-19T18:46:41.974Z,16.30
2023-08-19T18:49:09.350Z,20.60
2023-08-19T18:51:36.805Z,17.70
2023-08-19T18:54:04.575Z,15.70
2023-08-19T18:56:31.921Z,15.90
2023-08-19T18:59:00.149Z,15.70
2023-08-19T19:01:27.693Z,13.20
2023-08-19T19:03:56.976Z,17.30
2023-08-19T19:06:25.749Z,11.60
2023-08-19T19:08:54.976Z,16.10
2023-08-19T19:11:24.152Z,18.20
2023-08-19T19:13:51.456Z,15.30
2023-08-19T19:16:18.762Z,21.80
2023-08-19T19:18:46.213Z,13.80
2023-08-19T19:21:13.672Z,15.60
2023-08-19T19:23:41.022Z,14.90
2023-08-19T19:26:08.427Z,12.90
2023-08-19T19:28:36.120Z,17.70
2023-08-19T19:31:06.210Z,16.50
2023-08-19T19:33:34.942Z,29.80
2023-08-19T19:36:02.326Z,17.90
2023-08-19T19:38:29.736Z,17.00
2023-08-19T19:40:59.282Z,16.00
2023-08-19T19:43:26.577Z,16.90
2023-08-19T19:45:54.419Z,20.70
2023-08-19T19:48:21.859Z,18.00
2023-08-19T19:50:49.380Z,16.20
2023-08-19T19:53:16.721Z,19.40
2023-08-19T19:55:45.650Z,12.80
2023-08-19T19:58:14.014Z,15.00
2023-08-19T20:00:41.461Z,13.40
2023-08-19T20:03:09.136Z,13.20
2023-08-19T20:05:36.626Z,14.60
2023-08-19T20:08:04.161Z,15.40
2023-08-19T20:10:31.511Z,19.70
2023-08-19T20:12:58.847Z,15.90
2023-08-19T20:15:29.842Z,16.40
2023-08-19T20:17:57.931Z,17.90
2023-08-19T20:20:25.482Z,16.70
2023-08-19T20:22:53.020Z,15.80
2023-08-19T20:25:20.443Z,18.60
2023-08-19T20:27:47.835Z,12.50
2023-08-19T20:30:15.280Z,16.60
2023-08-19T20:32:42.707Z,16.60
2023-08-19T20:35:12.469Z,12.30
2023-08-19T20:37:40.049Z,12.40
2023-08-19T20:40:08.402Z,16.40
2023-08-19T20:42:35.757Z,14.40
2023-08-19T20:45:03.230Z,15.30
2023-08-19T20:47:30.878Z,11.60
2023-08-19T20:49:58.283Z,16.00
2023-08-19T20:52:25.669Z,23.50
2023-08-19T20:54:53.028Z,20.80
2023-08-19T20:57:20.849Z,21.80
2023-08-19T20:59:48.143Z,14.80
2023-08-19T21:02:15.470Z,15.00
2023-08-19T21:04:42.788Z,20.10
2023-08-19T21:07:12.294Z,16.70
2023-08-19T21:09:39.884Z,20.30
2023-08-19T21:12:07.423Z,16.10
2023-08-19T21:14:34.782Z,16.20
2023-08-19T21:17:03.867Z,18.20
2023-08-19T21:19:31.188Z,13.90
2023-08-19T21:21:58.895Z,15.20
2023-08-19T21:24:26.231Z,18.80
2023-08-19T21:26:53.678Z,16.10
2023-08-19T21:29:20.984Z,16.50
2023-08-19T21:31:48.314Z,17.20
2023-08-19T21:34:15.728Z,16.40
2023-08-19T21:36:43.055Z,17.10
2023-08-19T21:39:10.357Z,14.70
2023-08-19T21:41:41.145Z,23.10
2023-08-19T21:44:08.531Z,17.80
2023-08-19T21:46:35.854Z,16.10
2023-08-19T21:49:03.566Z,18.10
2023-08-19T21:51:30.897Z,22.50
2023-08-19T21:53:58.276Z,19.20
2023-08-19T21:56:25.749Z,21.20
2023-08-19T21:58:53.122Z,14.00
2023-08-19T22:01:20.409Z,20.90
2023-08-19T22:03:47.739Z,17.30
2023-08-19T22:06:15.129Z,17.10
2023-08-19T22:08:42.821Z,18.10
2023-08-19T22:11:10.129Z,16.20
2023-08-19T22:13:37.600Z,18.40
2023-08-19T22:16:05.202Z,23.90
2023-08-19T22:18:32.514Z,16.90
2023-08-19T22:21:00.818Z,23.00
2023-08-19T22:23:28.197Z,16.40
2023-08-19T22:25:55.589Z,18.80
2023-08-19T22:28:22.903Z,20.90
2023-08-19T22:30:50.295Z,22.10
2023-08-19T22:33:17.794Z,17.80
2023-08-19T22:35:45.245Z,19.00
2023-08-19T22:38:12.780Z,17.00
2023-08-19T22:40:42.059Z,16.20
2023-08-19T22:43:10.103Z,19.00
2023-08-19T22:45:37.532Z,23.10
2023-08-19T22:48:05.319Z,18.30
2023-08-19T22:50:32.778Z,18.20
2023-08-19T22:53:00.185Z,17.80
2023-08-19T22:55:27.608Z,15.70
2023-08-19T22:57:54.970Z,19.00
2023-08-19T23:00:22.364Z,16.60
2023-08-19T23:02:49.780Z,22.00
2023-08-19T23:05:17.213Z,18.00
2023-08-19T23:07:44.687Z,16.30
2023-08-19T23:10:12.234Z,16.40
2023-08-19T23:12:41.448Z,25.30
2023-08-19T23:15:09.180Z,16.30
2023-08-19T23:17:36.753Z,18.40
2023-08-19T23:20:05.442Z,19.50
2023-08-19T23:22:32.765Z,20.50
2023-08-19T23:25:00.136Z,17.20
2023-08-19T23:27:27.519Z,16.30
2023-08-19T23:29:54.983Z,18.70
2023-08-19T23:32:22.345Z,20.50
2023-08-19T23:34:49.814Z,19.20
2023-08-19T23:37:17.199Z,23.70
2023-08-19T23:39:44.604Z,19.50
2023-08-19T23:42:12.005Z,23.80
2023-08-19T23:44:39.388Z,20.00
2023-08-19T23:47:07.133Z,16.40
2023-08-19T23:49:34.729Z,20.00
2023-08-19T23:52:02.167Z,19.50
2023-08-19T23:54:29.880Z,20.50
2023-08-19T23:56:57.448Z,20.80
2023-08-19T23:59:26.882Z,19.30
